createdAt,value
2022-08-16T00:00:20.417Z,19.06
2022-08-16T00:02:44.102Z,18.99
2022-08-16T00:05:11.978Z,19.04
2022-08-16T00:07:34.064Z,19.09
2022-08-16T00:09:59.915Z,19.20
2022-08-16T00:12:21.596Z,19.23
2022-08-16T00:14:45.410Z,19.26
2022-08-16T00:17:18.477Z,19.22
2022-08-16T00:19:41.537Z,19.23
2022-08-16T00:22:06.975Z,19.26
2022-08-16T00:24:35.396Z,19.31
2022-08-16T00:26:57.259Z,19.39
2022-08-16T00:29:20.916Z,19.33
2022-08-16T00:31:58.882Z,19.44
2022-08-16T00:34:22.971Z,19.51
2022-08-16T00:37:04.518Z,19.52
2022-08-16T00:39:26.336Z,19.53
2022-08-16T00:41:50.041Z,19.53
2022-08-16T00:44:13.808Z,19.58
2022-08-16T00:46:52.631Z,19.64
2022-08-16T00:49:19.714Z,19.66
2022-08-16T00:51:42.115Z,19.71
2022-08-16T00:54:04.618Z,19.67
2022-08-16T00:56:58.379Z,19.68
2022-08-16T00:59:20.887Z,19.71
2022-08-16T01:01:45.702Z,19.71
2022-08-16T01:04:29.585Z,19.77
2022-08-16T01:07:02.365Z,19.82
2022-08-16T01:09:24.490Z,19.79
2022-08-16T01:11:56.120Z,19.78
2022-08-16T01:14:25.093Z,19.83
2022-08-16T01:16:53.676Z,19.86
2022-08-16T01:19:30.073Z,19.90
2022-08-16T01:22:50.204Z,19.93
2022-08-16T01:24:53.943Z,19.99
2022-08-16T01:27:34.606Z,20.01
2022-08-16T01:30:06.073Z,19.94
2022-08-16T01:32:42.605Z,19.81
2022-08-16T01:35:17.064Z,19.74
2022-08-16T01:37:42.701Z,19.72
2022-08-16T01:40:06.963Z,19.74
2022-08-16T01:42:29.103Z,19.70
2022-08-16T01:44:52.309Z,19.51
2022-08-16T01:47:13.869Z,19.47
2022-08-16T01:49:45.544Z,19.39
2022-08-16T01:52:28.256Z,19.40
2022-08-16T01:54:51.575Z,19.38
2022-08-16T01:57:15.078Z,19.38
2022-08-16T01:59:44.201Z,19.27
2022-08-16T02:02:27.541Z,19.20
2022-08-16T02:04:53.172Z,19.24
2022-08-16T02:07:18.522Z,19.24
2022-08-16T02:09:41.073Z,19.10
2022-08-16T02:12:50.455Z,19.04
2022-08-16T02:14:48.145Z,19.04
2022-08-16T02:17:11.894Z,18.92
2022-08-16T02:19:59.381Z,18.86
2022-08-16T02:22:34.412Z,18.83
2022-08-16T02:24:56.666Z,18.84
2022-08-16T02:27:18.315Z,18.79
2022-08-16T02:29:41.998Z,18.75
2022-08-16T02:33:01.043Z,18.82
2022-08-16T02:34:46.322Z,18.79
2022-08-16T02:37:11.795Z,18.72
2022-08-16T02:39:33.278Z,18.65
2022-08-16T02:41:56.074Z,18.61
2022-08-16T02:44:18.069Z,18.64
2022-08-16T02:46:50.678Z,18.61
2022-08-16T02:49:15.926Z,18.61
2022-08-16T02:51:39.559Z,18.57
2022-08-16T02:54:02.688Z,18.67
2022-08-16T02:56:24.204Z,18.59
2022-08-16T02:58:53.681Z,18.53
2022-08-16T03:01:33.790Z,18.53
2022-08-16T03:04:28.696Z,18.46
2022-08-16T03:06:43.635Z,18.49
2022-08-16T03:09:05.181Z,18.51
2022-08-16T03:11:26.740Z,18.48
2022-08-16T03:13:57.479Z,18.53
2022-08-16T03:16:38.491Z,18.65
2022-08-16T03:19:04.215Z,18.67
2022-08-16T03:21:28.827Z,18.68
2022-08-16T03:23:59.795Z,18.62
2022-08-16T03:26:22.764Z,18.63
2022-08-16T03:28:46.147Z,18.55
2022-08-16T03:31:08.738Z,18.62
2022-08-16T03:33:30.240Z,18.53
2022-08-16T03:35:59.229Z,18.34
2022-08-16T03:38:40.692Z,18.28
2022-08-16T03:41:04.001Z,18.30
2022-08-16T03:43:51.527Z,18.34
2022-08-16T03:46:13.992Z,18.30
2022-08-16T03:48:55.708Z,18.37
2022-08-16T03:51:18.101Z,18.56
2022-08-16T03:54:00.914Z,18.47
2022-08-16T03:56:23.291Z,18.50
2022-08-16T03:58:48.441Z,18.54
2022-08-16T04:01:12.699Z,18.70
2022-08-16T04:03:35.275Z,18.68
2022-08-16T04:05:57.976Z,18.83
2022-08-16T04:08:23.417Z,18.80
2022-08-16T04:10:45.898Z,18.80
2022-08-16T04:13:20.600Z,18.81
2022-08-16T04:15:55.374Z,18.89
2022-08-16T04:18:17.463Z,18.83
2022-08-16T04:20:39.315Z,18.81
2022-08-16T04:23:02.057Z,18.88
2022-08-16T04:25:24.249Z,18.88
2022-08-16T04:27:54.167Z,18.81
2022-08-16T04:30:32.188Z,18.80
2022-08-16T04:32:57.164Z,18.83
2022-08-16T04:35:23.262Z,18.93
2022-08-16T04:37:46.537Z,18.89
2022-08-16T04:40:10.200Z,18.85
2022-08-16T04:42:43.180Z,18.96
2022-08-16T04:45:07.110Z,19.01
2022-08-16T04:47:35.670Z,18.75
2022-08-16T04:49:57.967Z,18.69
2022-08-16T04:52:33.936Z,18.73
2022-08-16T04:54:57.149Z,18.69
2022-08-16T04:57:18.623Z,18.65
2022-08-16T04:59:40.264Z,18.68
2022-08-16T05:02:03.611Z,18.69
2022-08-16T05:04:44.970Z,18.76
2022-08-16T05:07:06.830Z,18.85
2022-08-16T05:09:28.469Z,18.86
2022-08-16T05:11:51.861Z,18.88
2022-08-16T05:14:20.056Z,18.94
2022-08-16T05:16:54.939Z,18.99
2022-08-16T05:19:17.246Z,19.03
2022-08-16T05:21:39.599Z,19.09
2022-08-16T05:24:01.976Z,19.11
2022-08-16T05:26:29.748Z,19.19
2022-08-16T05:28:55.282Z,19.26
2022-08-16T05:31:17.875Z,19.27
2022-08-16T05:33:42.287Z,19.34
2022-08-16T05:36:04.920Z,19.38
2022-08-16T05:38:39.252Z,19.36
2022-08-16T05:41:02.434Z,19.37
2022-08-16T05:43:24.253Z,19.39
2022-08-16T05:45:45.737Z,19.51
2022-08-16T05:48:12.505Z,19.52
2022-08-16T05:50:34.734Z,19.57
2022-08-16T05:52:56.285Z,19.59
2022-08-16T05:55:19.442Z,19.63
2022-08-16T05:57:41.855Z,19.69
2022-08-16T06:00:09.313Z,19.76
2022-08-16T06:02:33.487Z,19.79
2022-08-16T06:04:55.151Z,19.83
2022-08-16T06:07:24.723Z,19.87
2022-08-16T06:09:47.579Z,19.93
2022-08-16T06:12:09.478Z,19.97
2022-08-16T06:14:32.470Z,20.01
2022-08-16T06:16:53.948Z,20.10
2022-08-16T06:19:16.718Z,20.15
2022-08-16T06:21:39.094Z,20.20
2022-08-16T06:24:00.991Z,20.26
2022-08-16T06:26:23.276Z,20.33
2022-08-16T06:28:45.401Z,20.40
2022-08-16T06:31:12.214Z,20.46
2022-08-16T06:33:42.033Z,20.52
2022-08-16T06:36:04.384Z,20.58
2022-08-16T06:38:34.026Z,20.68
2022-08-16T06:40:56.157Z,20.84
2022-08-16T06:43:19.824Z,20.84
2022-08-16T06:45:43.347Z,21.05
2022-08-16T06:48:05.608Z,20.97
2022-08-16T06:50:29.305Z,21.03
2022-08-16T06:52:58.516Z,21.02
2022-08-16T06:55:22.286Z,21.15
2022-08-16T06:57:45.902Z,21.29
2022-08-16T07:00:24.787Z,21.49
2022-08-16T07:02:51.833Z,21.51
2022-08-16T07:05:16.275Z,21.65
2022-08-16T07:07:39.884Z,21.63
2022-08-16T07:10:08.651Z,21.73
2022-08-16T07:12:36.895Z,21.85
2022-08-16T07:15:18.657Z,21.91
2022-08-16T07:17:40.464Z,22.14
2022-08-16T07:20:34.945Z,22.12
2022-08-16T07:22:52.583Z,22.22
2022-08-16T07:25:20.075Z,22.34
2022-08-16T07:27:44.462Z,22.45
2022-08-16T07:30:45.858Z,22.50
2022-08-16T07:32:51.527Z,22.70
2022-08-16T07:35:13.491Z,22.80
2022-08-16T07:37:35.920Z,22.88
2022-08-16T07:40:02.339Z,22.87
2022-08-16T07:42:35.384Z,22.98
2022-08-16T07:44:57.975Z,23.15
2022-08-16T07:47:24.431Z,23.11
2022-08-16T07:49:53.119Z,23.33
2022-08-16T07:52:20.608Z,23.45
2022-08-16T07:54:45.822Z,23.66
2022-08-16T07:57:07.545Z,23.81
2022-08-16T07:59:45.663Z,23.81
2022-08-16T08:02:11.950Z,23.89
2022-08-16T08:04:33.912Z,23.89
2022-08-16T08:06:56.007Z,24.17
2022-08-16T08:09:18.001Z,24.14
2022-08-16T08:11:41.487Z,24.36
2022-08-16T08:14:29.709Z,24.53
2022-08-16T08:16:52.924Z,24.37
2022-08-16T08:19:14.635Z,24.62
2022-08-16T08:22:00.944Z,24.67
2022-08-16T08:24:18.478Z,24.69
2022-08-16T08:26:42.993Z,24.86
2022-08-16T08:29:05.147Z,24.91
2022-08-16T08:31:30.537Z,25.18
2022-08-16T08:33:56.611Z,25.26
2022-08-16T08:36:33.467Z,25.46
2022-08-16T08:38:55.660Z,25.71
2022-08-16T08:41:19.761Z,25.63
2022-08-16T08:43:50.516Z,25.84
2022-08-16T08:46:17.971Z,26.08
2022-08-16T08:48:40.221Z,26.42
2022-08-16T08:51:09.247Z,26.48
2022-08-16T08:53:33.337Z,26.68
2022-08-16T08:55:58.852Z,27.02
2022-08-16T08:58:20.972Z,27.23
2022-08-16T09:00:50.394Z,27.48
2022-08-16T09:03:14.811Z,27.57
2022-08-16T09:05:37.524Z,27.58
2022-08-16T09:08:01.532Z,27.75
2022-08-16T09:10:29.534Z,27.95
2022-08-16T09:12:52.024Z,28.03
2022-08-16T09:15:16.071Z,28.20
2022-08-16T09:17:53.503Z,28.13
2022-08-16T09:20:16.809Z,28.25
2022-08-16T09:22:38.399Z,28.32
2022-08-16T09:25:10.168Z,28.28
2022-08-16T09:27:56.909Z,28.29
2022-08-16T09:30:33.193Z,28.22
2022-08-16T09:32:56.758Z,28.23
2022-08-16T09:35:18.215Z,28.48
2022-08-16T09:37:39.846Z,28.58
2022-08-16T09:40:01.860Z,28.58
2022-08-16T09:42:23.357Z,28.85
2022-08-16T09:45:09.301Z,28.99
2022-08-16T09:47:28.156Z,29.43
2022-08-16T09:50:12.154Z,29.55
2022-08-16T09:52:39.606Z,29.70
2022-08-16T09:55:12.610Z,29.93
2022-08-16T09:57:34.790Z,29.89
2022-08-16T09:59:57.200Z,30.11
2022-08-16T10:02:27.367Z,30.23
2022-08-16T10:04:54.539Z,30.12
2022-08-16T10:07:18.205Z,30.20
2022-08-16T10:09:44.860Z,30.42
2022-08-16T10:12:34.469Z,30.24
2022-08-16T10:15:04.745Z,30.10
2022-08-16T10:17:26.756Z,30.04
2022-08-16T10:19:50.346Z,30.07
2022-08-16T10:22:12.694Z,29.97
2022-08-16T10:24:34.516Z,30.00
2022-08-16T10:27:03.785Z,29.94
2022-08-16T10:30:01.160Z,30.26
2022-08-16T10:32:30.500Z,30.61
2022-08-16T10:34:54.229Z,30.79
2022-08-16T10:37:16.647Z,30.94
2022-08-16T10:39:55.973Z,30.88
2022-08-16T10:42:20.532Z,30.95
2022-08-16T10:44:42.730Z,31.26
2022-08-16T10:47:15.812Z,31.17
2022-08-16T10:49:39.496Z,31.48
2022-08-16T10:52:18.009Z,31.45
2022-08-16T10:57:24.601Z,31.18
2022-08-16T10:59:56.126Z,31.17
2022-08-16T11:02:57.739Z,31.45
2022-08-16T11:05:06.411Z,31.62
2022-08-16T11:07:45.538Z,31.61
2022-08-16T11:10:20.409Z,31.66
2022-08-16T11:12:42.498Z,31.96
2022-08-16T11:15:17.225Z,32.08
2022-08-16T11:17:45.026Z,31.97
2022-08-16T11:20:41.969Z,31.72
2022-08-16T11:23:04.372Z,31.62
2022-08-16T11:28:11.215Z,31.49
2022-08-16T11:30:38.633Z,31.91
2022-08-16T11:33:04.003Z,32.10
2022-08-16T11:35:43.891Z,32.18
2022-08-16T11:38:46.264Z,32.13
2022-08-16T11:40:58.668Z,31.79
2022-08-16T11:43:24.937Z,31.59
2022-08-16T11:45:53.881Z,31.34
2022-08-16T11:48:16.793Z,31.00
2022-08-16T11:50:38.243Z,30.81
2022-08-16T11:53:04.187Z,30.73
2022-08-16T11:55:26.200Z,30.59
2022-08-16T11:57:51.550Z,30.35
2022-08-16T12:00:33.540Z,30.34
2022-08-16T12:03:00.791Z,30.12
2022-08-16T12:05:24.443Z,30.08
2022-08-16T12:07:46.501Z,30.12
2022-08-16T12:10:12.237Z,30.04
2022-08-16T12:12:34.354Z,29.95
2022-08-16T12:14:59.456Z,30.07
2022-08-16T12:17:22.969Z,30.11
2022-08-16T12:19:47.223Z,30.14
2022-08-16T12:22:19.764Z,30.04
2022-08-16T12:24:42.112Z,30.34
2022-08-16T12:27:05.334Z,31.14
2022-08-16T12:29:30.509Z,31.69
2022-08-16T12:32:00.653Z,32.24
2022-08-16T12:34:34.574Z,32.65
2022-08-16T12:36:56.575Z,32.69
2022-08-16T12:39:20.397Z,32.47
2022-08-16T12:41:46.284Z,32.43
2022-08-16T12:44:08.005Z,32.61
2022-08-16T12:46:33.133Z,32.93
2022-08-16T12:49:00.554Z,33.55
2022-08-16T12:51:32.959Z,34.08
2022-08-16T12:54:10.680Z,34.32
2022-08-16T12:56:35.287Z,34.44
2022-08-16T12:58:57.693Z,34.88
2022-08-16T13:01:24.660Z,34.76
2022-08-16T13:03:46.450Z,34.54
2022-08-16T13:06:08.720Z,34.17
2022-08-16T13:08:30.814Z,34.22
2022-08-16T13:10:55.225Z,34.22
2022-08-16T13:13:26.108Z,35.05
2022-08-16T13:15:55.676Z,35.91
2022-08-16T13:18:27.085Z,36.48
2022-08-16T13:20:58.817Z,37.57
2022-08-16T13:23:20.430Z,37.87
2022-08-16T13:25:45.290Z,37.66
2022-08-16T13:28:15.136Z,38.33
2022-08-16T13:31:01.106Z,39.16
2022-08-16T13:33:30.478Z,39.81
2022-08-16T13:35:55.643Z,39.78
2022-08-16T13:38:21.654Z,39.51
2022-08-16T13:40:46.764Z,39.34
2022-08-16T13:43:11.342Z,39.59
2022-08-16T13:45:36.448Z,39.71
2022-08-16T13:47:58.381Z,39.51
2022-08-16T13:50:31.099Z,38.66
2022-08-16T13:53:07.730Z,37.83
2022-08-16T13:55:29.758Z,37.06
2022-08-16T13:57:53.647Z,36.38
2022-08-16T14:00:34.290Z,35.57
2022-08-16T14:02:59.112Z,34.86
2022-08-16T14:05:22.091Z,34.49
2022-08-16T14:07:43.642Z,33.88
2022-08-16T14:10:13.525Z,33.55
2022-08-16T14:12:37.853Z,33.25
2022-08-16T14:15:00.675Z,32.87
2022-08-16T14:17:26.244Z,32.61
2022-08-16T14:19:49.282Z,32.39
2022-08-16T14:22:30.558Z,33.42
2022-08-16T14:24:54.894Z,34.20
2022-08-16T14:27:21.867Z,34.35
2022-08-16T14:29:43.558Z,35.16
2022-08-16T14:32:06.932Z,35.29
2022-08-16T14:34:29.814Z,35.11
2022-08-16T14:36:52.194Z,35.75
2022-08-16T14:39:14.555Z,36.25
2022-08-16T14:41:36.030Z,36.80
2022-08-16T14:44:00.956Z,37.29
2022-08-16T14:46:22.589Z,37.67
2022-08-16T14:48:44.079Z,37.85
2022-08-16T14:51:05.748Z,38.13
2022-08-16T14:53:28.966Z,38.67
2022-08-16T14:55:54.826Z,39.30
2022-08-16T14:58:18.728Z,39.56
2022-08-16T15:00:41.399Z,39.59
2022-08-16T15:03:06.817Z,39.72
2022-08-16T15:07:57.823Z,40.12
2022-08-16T15:10:24.249Z,40.54
2022-08-16T15:12:47.344Z,40.79
2022-08-16T15:15:16.276Z,41.12
2022-08-16T15:17:39.525Z,41.42
2022-08-16T15:20:01.903Z,42.07
2022-08-16T15:22:32.660Z,41.74
2022-08-16T15:24:58.799Z,42.13
2022-08-16T15:27:20.284Z,41.79
2022-08-16T15:29:42.346Z,41.36
2022-08-16T15:32:04.148Z,41.30
2022-08-16T15:34:30.353Z,41.10
2022-08-16T15:36:54.447Z,41.10
2022-08-16T15:39:30.334Z,41.14
2022-08-16T15:42:01.626Z,41.11
2022-08-16T15:44:25.390Z,41.73
2022-08-16T15:46:57.112Z,42.29
2022-08-16T15:49:20.360Z,42.11
2022-08-16T15:51:44.818Z,41.75
2022-08-16T15:54:29.154Z,41.16
2022-08-16T15:56:51.474Z,41.32
2022-08-16T15:59:14.123Z,41.21
2022-08-16T16:01:36.207Z,41.27
2022-08-16T16:03:58.044Z,40.96
2022-08-16T16:06:20.357Z,40.73
2022-08-16T16:08:49.961Z,40.71
2022-08-16T16:11:12.298Z,41.18
2022-08-16T16:13:34.193Z,41.25
2022-08-16T16:16:00.610Z,41.03
2022-08-16T16:18:24.802Z,40.59
2022-08-16T16:20:54.087Z,40.15
2022-08-16T16:23:19.288Z,39.86
2022-08-16T16:25:45.669Z,39.84
2022-08-16T16:28:12.709Z,40.03
2022-08-16T16:30:54.820Z,40.37
2022-08-16T16:33:22.943Z,40.04
2022-08-16T16:35:46.738Z,40.19
2022-08-16T16:38:08.885Z,40.35
2022-08-16T16:40:33.302Z,40.21
2022-08-16T16:42:56.198Z,39.76
2022-08-16T16:45:19.614Z,39.47
2022-08-16T16:47:48.293Z,39.18
2022-08-16T16:50:12.351Z,39.02
2022-08-16T16:52:44.329Z,38.50
2022-08-16T16:55:08.874Z,38.66
2022-08-16T16:57:48.894Z,38.09
2022-08-16T17:00:29.807Z,37.84
2022-08-16T17:02:56.527Z,37.94
2022-08-16T17:05:18.404Z,38.17
2022-08-16T17:07:40.506Z,38.04
2022-08-16T17:10:02.108Z,37.87
2022-08-16T17:12:25.116Z,37.75
2022-08-16T17:15:07.408Z,37.36
2022-08-16T17:17:30.077Z,36.93
2022-08-16T17:19:59.211Z,36.79
2022-08-16T17:22:22.409Z,36.85
2022-08-16T17:24:50.554Z,36.91
2022-08-16T17:27:32.103Z,37.11
2022-08-16T17:29:54.759Z,36.93
2022-08-16T17:32:44.464Z,36.66
2022-08-16T17:35:00.623Z,36.31
2022-08-16T17:37:22.319Z,36.00
2022-08-16T17:40:06.091Z,35.46
2022-08-16T17:42:33.704Z,34.95
2022-08-16T17:44:55.198Z,34.63
2022-08-16T17:47:16.659Z,34.53
2022-08-16T17:49:38.548Z,34.69
2022-08-16T17:52:00.109Z,34.60
2022-08-16T17:54:30.730Z,34.23
2022-08-16T17:56:53.934Z,33.52
2022-08-16T17:59:15.896Z,33.17
2022-08-16T18:01:37.463Z,32.99
2022-08-16T18:04:09.213Z,32.96
2022-08-16T18:06:31.402Z,32.67
2022-08-16T18:09:01.619Z,32.42
2022-08-16T18:11:26.095Z,32.08
2022-08-16T18:13:49.291Z,31.71
2022-08-16T18:16:14.090Z,31.40
2022-08-16T18:18:35.761Z,31.07
2022-08-16T18:21:15.828Z,30.83
2022-08-16T18:23:38.617Z,30.33
2022-08-16T18:26:01.768Z,29.97
2022-08-16T18:28:25.147Z,29.72
2022-08-16T18:30:51.424Z,29.60
2022-08-16T18:33:13.939Z,29.22
2022-08-16T18:35:35.729Z,29.07
2022-08-16T18:37:57.434Z,29.03
2022-08-16T18:40:19.045Z,28.79
2022-08-16T18:42:51.401Z,28.48
2022-08-16T18:45:13.106Z,28.29
2022-08-16T18:47:34.758Z,28.24
2022-08-16T18:49:56.317Z,28.00
2022-08-16T18:52:24.906Z,27.88
2022-08-16T18:54:58.846Z,27.75
2022-08-16T18:57:24.627Z,27.66
2022-08-16T18:59:46.173Z,27.55
2022-08-16T19:02:07.640Z,27.45
2022-08-16T19:04:57.682Z,27.37
2022-08-16T19:07:20.101Z,27.18
2022-08-16T19:09:41.621Z,27.10
2022-08-16T19:12:04.881Z,26.98
2022-08-16T19:14:30.030Z,26.89
2022-08-16T19:16:51.581Z,26.88
2022-08-16T19:19:13.113Z,26.72
2022-08-16T19:21:34.607Z,26.38
2022-08-16T19:23:56.481Z,26.07
2022-08-16T19:26:24.566Z,25.92
2022-08-16T19:28:58.492Z,25.85
2022-08-16T19:31:26.048Z,25.83
2022-08-16T19:33:54.487Z,25.75
2022-08-16T19:36:31.753Z,25.51
2022-08-16T19:38:55.500Z,25.26
2022-08-16T19:41:17.437Z,25.20
2022-08-16T19:43:38.984Z,25.18
2022-08-16T19:46:00.485Z,24.95
2022-08-16T19:48:22.078Z,24.89
2022-08-16T19:50:43.518Z,24.77
2022-08-16T19:53:18.958Z,24.73
2022-08-16T19:55:42.240Z,24.69
2022-08-16T19:58:05.504Z,24.61
2022-08-16T20:00:35.267Z,24.46
2022-08-16T20:02:57.393Z,24.27
2022-08-16T20:05:24.465Z,24.19
2022-08-16T20:07:46.918Z,24.21
2022-08-16T20:10:10.399Z,24.01
2022-08-16T20:12:31.859Z,23.93
2022-08-16T20:14:53.321Z,23.92
2022-08-16T20:17:15.072Z,23.94
2022-08-16T20:19:40.474Z,23.74
2022-08-16T20:22:05.695Z,23.53
2022-08-16T20:24:34.811Z,23.44
2022-08-16T20:26:57.567Z,23.19
2022-08-16T20:29:19.256Z,23.03
2022-08-16T20:31:40.747Z,22.95
2022-08-16T20:34:02.686Z,22.94
2022-08-16T20:36:24.523Z,22.94
2022-08-16T20:38:47.613Z,22.92
2022-08-16T20:41:09.487Z,22.87
2022-08-16T20:43:31.000Z,22.83
2022-08-16T20:45:52.555Z,22.86
2022-08-16T20:48:14.140Z,22.76
2022-08-16T20:50:35.838Z,22.66
2022-08-16T20:52:57.721Z,22.60
2022-08-16T20:55:20.439Z,22.52
2022-08-16T20:57:41.894Z,22.27
2022-08-16T21:00:06.241Z,22.11
2022-08-16T21:02:27.785Z,21.95
2022-08-16T21:04:49.361Z,21.90
2022-08-16T21:07:12.399Z,21.94
2022-08-16T21:09:35.738Z,21.92
2022-08-16T21:12:00.780Z,21.87
2022-08-16T21:14:23.597Z,21.91
2022-08-16T21:16:45.751Z,21.91
2022-08-16T21:19:07.483Z,21.96
2022-08-16T21:21:32.006Z,21.88
2022-08-16T21:23:55.566Z,21.87
2022-08-16T21:26:16.998Z,21.82
2022-08-16T21:28:43.272Z,21.85
2022-08-16T21:31:05.603Z,21.84
2022-08-16T21:33:27.070Z,21.82
2022-08-16T21:35:49.250Z,21.83
2022-08-16T21:38:29.304Z,21.77
2022-08-16T21:40:52.077Z,21.75
2022-08-16T21:43:23.361Z,21.75
2022-08-16T21:45:46.306Z,21.62
2022-08-16T21:48:08.172Z,21.62
2022-08-16T21:50:29.812Z,21.58
2022-08-16T21:53:11.914Z,21.60
2022-08-16T21:55:34.986Z,21.56
2022-08-16T21:57:56.700Z,21.57
2022-08-16T22:00:19.247Z,21.55
2022-08-16T22:02:41.674Z,21.56
2022-08-16T22:05:05.307Z,21.39
2022-08-16T22:07:26.831Z,21.31
2022-08-16T22:09:50.307Z,21.30
2022-08-16T22:12:24.046Z,21.19
2022-08-16T22:14:45.976Z,21.23
2022-08-16T22:17:07.415Z,21.20
2022-08-16T22:19:28.903Z,20.99
2022-08-16T22:21:50.433Z,20.80
2022-08-16T22:24:11.965Z,20.68
2022-08-16T22:26:38.470Z,20.58
2022-08-16T22:29:06.934Z,20.54
2022-08-16T22:31:28.797Z,20.52
2022-08-16T22:33:50.406Z,20.53
2022-08-16T22:36:12.073Z,20.53
2022-08-16T22:38:56.285Z,20.53
2022-08-16T22:41:16.212Z,20.39
2022-08-16T22:43:40.424Z,20.28
2022-08-16T22:46:02.033Z,20.23
2022-08-16T22:48:23.608Z,20.27
2022-08-16T22:50:45.302Z,20.24
2022-08-16T22:53:07.281Z,20.11
2022-08-16T22:55:30.475Z,20.00
2022-08-16T22:57:52.819Z,20.01
2022-08-16T23:00:17.179Z,19.94
2022-08-16T23:03:19.147Z,19.95
2022-08-16T23:05:50.509Z,19.92
2022-08-16T23:08:15.569Z,19.91
2022-08-16T23:10:55.502Z,20.04
2022-08-16T23:13:18.429Z,19.86
2022-08-16T23:15:45.702Z,19.78
2022-08-16T23:18:13.660Z,19.60
2022-08-16T23:20:35.113Z,19.53
2022-08-16T23:23:20.811Z,19.52
2022-08-16T23:25:44.925Z,19.48
2022-08-16T23:28:07.275Z,19.48
2022-08-16T23:30:30.923Z,19.48
2022-08-16T23:32:59.993Z,19.50
2022-08-16T23:35:24.491Z,19.53
2022-08-16T23:37:46.467Z,19.66
2022-08-16T23:40:13.385Z,19.55
2022-08-16T23:42:53.395Z,19.39
2022-08-16T23:45:17.866Z,19.25
2022-08-16T23:47:39.311Z,19.15
2022-08-16T23:50:03.857Z,19.14
2022-08-16T23:52:39.310Z,19.15
2022-08-16T23:55:08.403Z,19.15
2022-08-16T23:57:30.898Z,19.15
2022-08-16T23:59:53.544Z,19.17
